sensor_id;sensor_type;location;lat;lon;timestamp;P1;durP1;ratioP1;P2;durP2;ratioP2
80584;SDS011;70137;56.482;9.154;2023-11-21T00:02:01;10.95;;;6.07;;
80584;SDS011;70137;56.482;9.154;2023-11-21T00:04:26;11.57;;;6.40;;
80584;SDS011;70137;56.482;9.154;2023-11-21T00:06:52;11.52;;;5.88;;
80584;SDS011;70137;56.482;9.154;2023-11-21T00:09:19;12.57;;;6.30;;
80584;SDS011;70137;56.482;9.154;2023-11-21T00:11:45;12.52;;;6.30;;
80584;SDS011;70137;56.482;9.154;2023-11-21T00:14:10;9.80;;;6.05;;
80584;SDS011;70137;56.482;9.154;2023-11-21T00:16:36;12.48;;;5.97;;
80584;SDS011;70137;56.482;9.154;2023-11-21T00:19:01;12.50;;;6.50;;
80584;SDS011;70137;56.482;9.154;2023-11-21T00:21:27;11.23;;;5.72;;
80584;SDS011;70137;56.482;9.154;2023-11-21T00:23:52;12.60;;;6.05;;
80584;SDS011;70137;56.482;9.154;2023-11-21T00:26:18;12.95;;;6.43;;
80584;SDS011;70137;56.482;9.154;2023-11-21T00:28:43;13.77;;;5.97;;
80584;SDS011;70137;56.482;9.154;2023-11-21T00:31:08;10.32;;;5.97;;
80584;SDS011;70137;56.482;9.154;2023-11-21T00:33:34;11.75;;;6.18;;
80584;SDS011;70137;56.482;9.154;2023-11-21T00:35:59;10.57;;;5.40;;
80584;SDS011;70137;56.482;9.154;2023-11-21T00:38:25;12.70;;;6.13;;
80584;SDS011;70137;56.482;9.154;2023-11-21T00:40:52;9.88;;;5.80;;
80584;SDS011;70137;56.482;9.154;2023-11-21T00:43:21;9.68;;;5.45;;
80584;SDS011;70137;56.482;9.154;2023-11-21T00:45:46;12.20;;;5.65;;
80584;SDS011;70137;56.482;9.154;2023-11-21T00:48:14;11.60;;;6.10;;
80584;SDS011;70137;56.482;9.154;2023-11-21T00:50:39;12.07;;;6.10;;
80584;SDS011;70137;56.482;9.154;2023-11-21T00:53:05;12.07;;;5.97;;
80584;SDS011;70137;56.482;9.154;2023-11-21T00:55:32;9.60;;;5.50;;
80584;SDS011;70137;56.482;9.154;2023-11-21T00:57:58;10.63;;;5.90;;
80584;SDS011;70137;56.482;9.154;2023-11-21T01:00:23;12.63;;;5.97;;
80584;SDS011;70137;56.482;9.154;2023-11-21T01:02:49;10.70;;;5.18;;
80584;SDS011;70137;56.482;9.154;2023-11-21T01:05:14;9.63;;;5.45;;
80584;SDS011;70137;56.482;9.154;2023-11-21T01:07:39;11.23;;;6.03;;
80584;SDS011;70137;56.482;9.154;2023-11-21T01:10:05;12.98;;;6.45;;
80584;SDS011;70137;56.482;9.154;2023-11-21T01:12:32;13.00;;;5.82;;
80584;SDS011;70137;56.482;9.154;2023-11-21T01:14:59;11.27;;;5.70;;
80584;SDS011;70137;56.482;9.154;2023-11-21T01:17:25;10.48;;;5.45;;
80584;SDS011;70137;56.482;9.154;2023-11-21T01:19:51;12.23;;;6.00;;
80584;SDS011;70137;56.482;9.154;2023-11-21T01:22:16;12.82;;;5.93;;
80584;SDS011;70137;56.482;9.154;2023-11-21T01:24:42;15.40;;;6.28;;
80584;SDS011;70137;56.482;9.154;2023-11-21T01:27:08;12.05;;;5.97;;
80584;SDS011;70137;56.482;9.154;2023-11-21T01:29:33;9.48;;;6.00;;
80584;SDS011;70137;56.482;9.154;2023-11-21T01:32:00;10.50;;;5.85;;
80584;SDS011;70137;56.482;9.154;2023-11-21T01:34:27;11.43;;;5.97;;
80584;SDS011;70137;56.482;9.154;2023-11-21T01:36:53;9.70;;;5.68;;
80584;SDS011;70137;56.482;9.154;2023-11-21T01:39:18;8.60;;;5.75;;
80584;SDS011;70137;56.482;9.154;2023-11-21T01:41:48;11.43;;;6.50;;
80584;SDS011;70137;56.482;9.154;2023-11-21T01:44:14;12.82;;;6.03;;
80584;SDS011;70137;56.482;9.154;2023-11-21T01:46:41;11.60;;;5.82;;
80584;SDS011;70137;56.482;9.154;2023-11-21T01:49:07;10.30;;;6.30;;
80584;SDS011;70137;56.482;9.154;2023-11-21T01:51:34;13.88;;;6.43;;
80584;SDS011;70137;56.482;9.154;2023-11-21T01:54:01;15.52;;;6.75;;
80584;SDS011;70137;56.482;9.154;2023-11-21T01:56:30;14.27;;;5.90;;
80584;SDS011;70137;56.482;9.154;2023-11-21T01:58:56;10.77;;;5.68;;
80584;SDS011;70137;56.482;9.154;2023-11-21T02:01:22;10.23;;;5.70;;
80584;SDS011;70137;56.482;9.154;2023-11-21T02:03:47;12.70;;;6.57;;
80584;SDS011;70137;56.482;9.154;2023-11-21T02:06:13;12.15;;;6.32;;
80584;SDS011;70137;56.482;9.154;2023-11-21T02:08:38;10.88;;;5.82;;
80584;SDS011;70137;56.482;9.154;2023-11-21T02:11:04;11.00;;;5.60;;
80584;SDS011;70137;56.482;9.154;2023-11-21T02:13:31;9.98;;;6.05;;
80584;SDS011;70137;56.482;9.154;2023-11-21T02:15:57;10.38;;;5.90;;
80584;SDS011;70137;56.482;9.154;2023-11-21T02:18:23;10.95;;;5.47;;
80584;SDS011;70137;56.482;9.154;2023-11-21T02:20:48;10.50;;;6.10;;
80584;SDS011;70137;56.482;9.154;2023-11-21T02:23:14;10.82;;;6.10;;
80584;SDS011;70137;56.482;9.154;2023-11-21T02:25:39;11.32;;;5.53;;
80584;SDS011;70137;56.482;9.154;2023-11-21T02:28:04;9.82;;;5.68;;
80584;SDS011;70137;56.482;9.154;2023-11-21T02:30:31;12.13;;;5.80;;
80584;SDS011;70137;56.482;9.154;2023-11-21T02:32:57;12.55;;;6.30;;
80584;SDS011;70137;56.482;9.154;2023-11-21T02:35:23;9.88;;;5.90;;
80584;SDS011;70137;56.482;9.154;2023-11-21T02:37:50;11.63;;;5.93;;
80584;SDS011;70137;56.482;9.154;2023-11-21T02:40:16;11.68;;;5.35;;
80584;SDS011;70137;56.482;9.154;2023-11-21T02:42:49;9.70;;;5.63;;
80584;SDS011;70137;56.482;9.154;2023-11-21T02:45:16;9.95;;;5.30;;
80584;SDS011;70137;56.482;9.154;2023-11-21T02:47:42;12.57;;;5.43;;
80584;SDS011;70137;56.482;9.154;2023-11-21T02:50:08;14.27;;;5.47;;
80584;SDS011;70137;56.482;9.154;2023-11-21T02:52:34;13.52;;;5.65;;
80584;SDS011;70137;56.482;9.154;2023-11-21T02:55:00;9.68;;;5.15;;
80584;SDS011;70137;56.482;9.154;2023-11-21T02:57:27;10.90;;;5.78;;
80584;SDS011;70137;56.482;9.154;2023-11-21T02:59:52;11.20;;;5.93;;
80584;SDS011;70137;56.482;9.154;2023-11-21T03:02:17;10.18;;;5.38;;
80584;SDS011;70137;56.482;9.154;2023-11-21T03:04:43;10.43;;;5.55;;
80584;SDS011;70137;56.482;9.154;2023-11-21T03:07:08;9.50;;;5.50;;
80584;SDS011;70137;56.482;9.154;2023-11-21T03:09:34;9.32;;;5.72;;
80584;SDS011;70137;56.482;9.154;2023-11-21T03:12:00;9.38;;;5.13;;
80584;SDS011;70137;56.482;9.154;2023-11-21T03:14:26;9.75;;;5.40;;
80584;SDS011;70137;56.482;9.154;2023-11-21T03:16:51;13.82;;;5.72;;
80584;SDS011;70137;56.482;9.154;2023-11-21T03:19:16;9.05;;;5.57;;
80584;SDS011;70137;56.482;9.154;2023-11-21T03:21:42;9.63;;;5.22;;
80584;SDS011;70137;56.482;9.154;2023-11-21T03:24:07;10.93;;;5.70;;
80584;SDS011;70137;56.482;9.154;2023-11-21T03:26:33;14.57;;;5.80;;
80584;SDS011;70137;56.482;9.154;2023-11-21T03:28:58;9.57;;;5.90;;
80584;SDS011;70137;56.482;9.154;2023-11-21T03:31:24;11.35;;;5.85;;
80584;SDS011;70137;56.482;9.154;2023-11-21T03:33:49;11.23;;;5.85;;
80584;SDS011;70137;56.482;9.154;2023-11-21T03:36:15;10.55;;;5.85;;
80584;SDS011;70137;56.482;9.154;2023-11-21T03:38:40;10.27;;;5.68;;
80584;SDS011;70137;56.482;9.154;2023-11-21T03:41:06;13.23;;;6.00;;
80584;SDS011;70137;56.482;9.154;2023-11-21T03:43:35;10.40;;;5.60;;
80584;SDS011;70137;56.482;9.154;2023-11-21T03:46:00;9.60;;;5.28;;
80584;SDS011;70137;56.482;9.154;2023-11-21T03:48:26;10.05;;;5.90;;
80584;SDS011;70137;56.482;9.154;2023-11-21T03:50:51;11.02;;;5.72;;
80584;SDS011;70137;56.482;9.154;2023-11-21T03:53:16;12.77;;;5.53;;
80584;SDS011;70137;56.482;9.154;2023-11-21T03:55:42;8.55;;;5.50;;
80584;SDS011;70137;56.482;9.154;2023-11-21T03:58:07;8.82;;;5.60;;
80584;SDS011;70137;56.482;9.154;2023-11-21T04:00:32;9.57;;;5.40;;
80584;SDS011;70137;56.482;9.154;2023-11-21T04:02:58;12.95;;;5.60;;
80584;SDS011;70137;56.482;9.154;2023-11-21T04:05:23;7.90;;;4.88;;
80584;SDS011;70137;56.482;9.154;2023-11-21T04:07:49;11.40;;;5.60;;
80584;SDS011;70137;56.482;9.154;2023-11-21T04:10:16;9.88;;;5.75;;
80584;SDS011;70137;56.482;9.154;2023-11-21T04:12:41;10.85;;;5.53;;
80584;SDS011;70137;56.482;9.154;2023-11-21T04:15:07;10.75;;;5.25;;
80584;SDS011;70137;56.482;9.154;2023-11-21T04:17:34;9.35;;;5.78;;
80584;SDS011;70137;56.482;9.154;2023-11-21T04:19:59;9.98;;;5.97;;
80584;SDS011;70137;56.482;9.154;2023-11-21T04:22:25;10.07;;;5.60;;
80584;SDS011;70137;56.482;9.154;2023-11-21T04:24:50;11.80;;;6.22;;
80584;SDS011;70137;56.482;9.154;2023-11-21T04:27:15;9.60;;;5.18;;
80584;SDS011;70137;56.482;9.154;2023-11-21T04:29:43;10.90;;;5.57;;
80584;SDS011;70137;56.482;9.154;2023-11-21T04:32:09;10.73;;;5.85;;
80584;SDS011;70137;56.482;9.154;2023-11-21T04:34:34;9.90;;;5.35;;
80584;SDS011;70137;56.482;9.154;2023-11-21T04:37:00;11.05;;;5.45;;
80584;SDS011;70137;56.482;9.154;2023-11-21T04:39:25;10.10;;;6.05;;
80584;SDS011;70137;56.482;9.154;2023-11-21T04:41:51;8.43;;;5.88;;
80584;SDS011;70137;56.482;9.154;2023-11-21T04:44:16;9.93;;;5.40;;
80584;SDS011;70137;56.482;9.154;2023-11-21T04:46:42;10.18;;;5.75;;
80584;SDS011;70137;56.482;9.154;2023-11-21T04:49:07;11.63;;;5.32;;
80584;SDS011;70137;56.482;9.154;2023-11-21T04:51:33;10.68;;;5.40;;
80584;SDS011;70137;56.482;9.154;2023-11-21T04:53:58;9.82;;;4.82;;
80584;SDS011;70137;56.482;9.154;2023-11-21T04:56:24;8.30;;;5.25;;
80584;SDS011;70137;56.482;9.154;2023-11-21T04:58:49;10.52;;;5.55;;
80584;SDS011;70137;56.482;9.154;2023-11-21T05:01:15;8.98;;;5.25;;
80584;SDS011;70137;56.482;9.154;2023-11-21T05:03:40;10.70;;;5.28;;
80584;SDS011;70137;56.482;9.154;2023-11-21T05:06:06;10.98;;;5.57;;
80584;SDS011;70137;56.482;9.154;2023-11-21T05:08:34;13.13;;;5.72;;
80584;SDS011;70137;56.482;9.154;2023-11-21T05:10:59;11.30;;;5.18;;
80584;SDS011;70137;56.482;9.154;2023-11-21T05:13:25;9.57;;;5.68;;
80584;SDS011;70137;56.482;9.154;2023-11-21T05:15:53;9.88;;;5.57;;
80584;SDS011;70137;56.482;9.154;2023-11-21T05:18:24;11.45;;;5.43;;
80584;SDS011;70137;56.482;9.154;2023-11-21T05:20:52;9.80;;;5.53;;
80584;SDS011;70137;56.482;9.154;2023-11-21T05:23:18;7.38;;;4.80;;
80584;SDS011;70137;56.482;9.154;2023-11-21T05:25:44;10.50;;;5.30;;
80584;SDS011;70137;56.482;9.154;2023-11-21T05:28:09;10.15;;;5.70;;
80584;SDS011;70137;56.482;9.154;2023-11-21T05:30:34;8.15;;;5.20;;
80584;SDS011;70137;56.482;9.154;2023-11-21T05:33:00;10.65;;;5.90;;
80584;SDS011;70137;56.482;9.154;2023-11-21T05:35:25;9.18;;;5.10;;
80584;SDS011;70137;56.482;9.154;2023-11-21T05:37:51;11.02;;;5.80;;
80584;SDS011;70137;56.482;9.154;2023-11-21T05:40:17;9.70;;;5.93;;
80584;SDS011;70137;56.482;9.154;2023-11-21T05:42:42;9.77;;;6.22;;
80584;SDS011;70137;56.482;9.154;2023-11-21T05:45:09;11.73;;;5.60;;
80584;SDS011;70137;56.482;9.154;2023-11-21T05:47:42;10.18;;;5.10;;
80584;SDS011;70137;56.482;9.154;2023-11-21T05:50:11;12.63;;;5.97;;
80584;SDS011;70137;56.482;9.154;2023-11-21T05:52:42;10.02;;;5.25;;
80584;SDS011;70137;56.482;9.154;2023-11-21T05:55:09;10.32;;;5.00;;
80584;SDS011;70137;56.482;9.154;2023-11-21T05:57:34;8.50;;;5.68;;
80584;SDS011;70137;56.482;9.154;2023-11-21T06:00:07;11.20;;;5.43;;
80584;SDS011;70137;56.482;9.154;2023-11-21T06:02:49;12.63;;;5.95;;
80584;SDS011;70137;56.482;9.154;2023-11-21T06:05:17;9.15;;;5.43;;
80584;SDS011;70137;56.482;9.154;2023-11-21T06:07:43;11.32;;;5.90;;
80584;SDS011;70137;56.482;9.154;2023-11-21T06:10:10;12.65;;;6.55;;
80584;SDS011;70137;56.482;9.154;2023-11-21T06:12:37;10.63;;;6.10;;
80584;SDS011;70137;56.482;9.154;2023-11-21T06:15:05;11.88;;;6.90;;
80584;SDS011;70137;56.482;9.154;2023-11-21T06:17:33;12.50;;;6.47;;
80584;SDS011;70137;56.482;9.154;2023-11-21T06:20:05;12.02;;;6.40;;
80584;SDS011;70137;56.482;9.154;2023-11-21T06:22:37;12.95;;;7.03;;
80584;SDS011;70137;56.482;9.154;2023-11-21T06:25:03;13.10;;;6.75;;
80584;SDS011;70137;56.482;9.154;2023-11-21T06:27:31;15.50;;;7.10;;
80584;SDS011;70137;56.482;9.154;2023-11-21T06:29:57;13.73;;;7.25;;
80584;SDS011;70137;56.482;9.154;2023-11-21T06:32:23;12.45;;;6.88;;
80584;SDS011;70137;56.482;9.154;2023-11-21T06:34:48;12.57;;;7.15;;
80584;SDS011;70137;56.482;9.154;2023-11-21T06:37:14;14.02;;;7.28;;
80584;SDS011;70137;56.482;9.154;2023-11-21T06:39:40;13.50;;;6.93;;
80584;SDS011;70137;56.482;9.154;2023-11-21T06:42:05;15.30;;;7.38;;
80584;SDS011;70137;56.482;9.154;2023-11-21T06:44:31;13.63;;;7.78;;
80584;SDS011;70137;56.482;9.154;2023-11-21T06:46:58;13.65;;;7.88;;
80584;SDS011;70137;56.482;9.154;2023-11-21T06:49:24;12.48;;;7.15;;
80584;SDS011;70137;56.482;9.154;2023-11-21T06:51:49;15.95;;;7.47;;
80584;SDS011;70137;56.482;9.154;2023-11-21T06:54:15;17.92;;;7.80;;
80584;SDS011;70137;56.482;9.154;2023-11-21T06:56:40;15.35;;;8.27;;
80584;SDS011;70137;56.482;9.154;2023-11-21T06:59:06;14.93;;;8.18;;
80584;SDS011;70137;56.482;9.154;2023-11-21T07:01:31;15.65;;;8.23;;
80584;SDS011;70137;56.482;9.154;2023-11-21T07:04:03;15.50;;;8.38;;
80584;SDS011;70137;56.482;9.154;2023-11-21T07:06:30;17.23;;;7.88;;
80584;SDS011;70137;56.482;9.154;2023-11-21T07:08:55;15.63;;;8.30;;
80584;SDS011;70137;56.482;9.154;2023-11-21T07:11:20;15.65;;;8.57;;
80584;SDS011;70137;56.482;9.154;2023-11-21T07:13:46;17.75;;;9.20;;
80584;SDS011;70137;56.482;9.154;2023-11-21T07:16:11;17.35;;;9.00;;
80584;SDS011;70137;56.482;9.154;2023-11-21T07:18:36;15.68;;;8.57;;
80584;SDS011;70137;56.482;9.154;2023-11-21T07:21:02;15.40;;;8.88;;
80584;SDS011;70137;56.482;9.154;2023-11-21T07:23:28;17.45;;;9.23;;
80584;SDS011;70137;56.482;9.154;2023-11-21T07:25:54;18.08;;;9.73;;
80584;SDS011;70137;56.482;9.154;2023-11-21T07:28:19;16.17;;;8.85;;
80584;SDS011;70137;56.482;9.154;2023-11-21T07:30:44;20.73;;;9.88;;
80584;SDS011;70137;56.482;9.154;2023-11-21T07:33:10;15.88;;;9.13;;
80584;SDS011;70137;56.482;9.154;2023-11-21T07:35:35;16.33;;;9.32;;
80584;SDS011;70137;56.482;9.154;2023-11-21T07:38:01;19.88;;;9.48;;
80584;SDS011;70137;56.482;9.154;2023-11-21T07:40:26;16.10;;;9.20;;
80584;SDS011;70137;56.482;9.154;2023-11-21T07:42:52;14.95;;;9.38;;
80584;SDS011;70137;56.482;9.154;2023-11-21T07:45:18;15.95;;;9.43;;
80584;SDS011;70137;56.482;9.154;2023-11-21T07:47:43;16.25;;;9.13;;
80584;SDS011;70137;56.482;9.154;2023-11-21T07:50:08;17.63;;;8.77;;
80584;SDS011;70137;56.482;9.154;2023-11-21T07:52:34;13.98;;;8.88;;
80584;SDS011;70137;56.482;9.154;2023-11-21T07:54:59;14.20;;;8.25;;
80584;SDS011;70137;56.482;9.154;2023-11-21T07:57:25;16.48;;;9.00;;
80584;SDS011;70137;56.482;9.154;2023-11-21T07:59:51;17.35;;;8.65;;
80584;SDS011;70137;56.482;9.154;2023-11-21T08:02:18;15.65;;;8.68;;
80584;SDS011;70137;56.482;9.154;2023-11-21T08:04:44;15.57;;;8.65;;
80584;SDS011;70137;56.482;9.154;2023-11-21T08:07:09;18.40;;;8.95;;
80584;SDS011;70137;56.482;9.154;2023-11-21T08:09:36;18.85;;;9.75;;
80584;SDS011;70137;56.482;9.154;2023-11-21T08:12:01;16.02;;;9.48;;
80584;SDS011;70137;56.482;9.154;2023-11-21T08:14:27;19.00;;;9.05;;
80584;SDS011;70137;56.482;9.154;2023-11-21T08:16:53;16.35;;;9.43;;
80584;SDS011;70137;56.482;9.154;2023-11-21T08:19:22;18.02;;;10.10;;
80584;SDS011;70137;56.482;9.154;2023-11-21T08:21:49;21.10;;;9.38;;
80584;SDS011;70137;56.482;9.154;2023-11-21T08:24:15;18.52;;;8.88;;
80584;SDS011;70137;56.482;9.154;2023-11-21T08:26:42;19.48;;;9.82;;
80584;SDS011;70137;56.482;9.154;2023-11-21T08:29:08;15.85;;;8.85;;
80584;SDS011;70137;56.482;9.154;2023-11-21T08:31:33;16.65;;;9.35;;
80584;SDS011;70137;56.482;9.154;2023-11-21T08:33:59;16.40;;;8.93;;
80584;SDS011;70137;56.482;9.154;2023-11-21T08:36:27;15.60;;;8.50;;
80584;SDS011;70137;56.482;9.154;2023-11-21T08:38:53;14.73;;;8.77;;
80584;SDS011;70137;56.482;9.154;2023-11-21T08:41:18;16.88;;;9.27;;
80584;SDS011;70137;56.482;9.154;2023-11-21T08:43:47;16.73;;;9.10;;
80584;SDS011;70137;56.482;9.154;2023-11-21T08:46:13;14.52;;;8.35;;
80584;SDS011;70137;56.482;9.154;2023-11-21T08:48:38;13.50;;;7.90;;
80584;SDS011;70137;56.482;9.154;2023-11-21T08:51:06;15.05;;;7.60;;
80584;SDS011;70137;56.482;9.154;2023-11-21T08:53:31;16.10;;;8.80;;
80584;SDS011;70137;56.482;9.154;2023-11-21T08:55:57;15.20;;;8.27;;
80584;SDS011;70137;56.482;9.154;2023-11-21T08:58:23;15.50;;;7.78;;
80584;SDS011;70137;56.482;9.154;2023-11-21T09:00:48;14.63;;;8.02;;
80584;SDS011;70137;56.482;9.154;2023-11-21T09:03:14;15.35;;;7.25;;
80584;SDS011;70137;56.482;9.154;2023-11-21T09:05:39;12.32;;;7.47;;
80584;SDS011;70137;56.482;9.154;2023-11-21T09:08:05;13.80;;;7.93;;
80584;SDS011;70137;56.482;9.154;2023-11-21T09:10:31;12.52;;;7.13;;
80584;SDS011;70137;56.482;9.154;2023-11-21T09:12:57;12.65;;;7.80;;
80584;SDS011;70137;56.482;9.154;2023-11-21T09:15:24;16.30;;;7.40;;
80584;SDS011;70137;56.482;9.154;2023-11-21T09:17:50;14.75;;;7.85;;
80584;SDS011;70137;56.482;9.154;2023-11-21T09:20:15;16.67;;;6.85;;
80584;SDS011;70137;56.482;9.154;2023-11-21T09:22:41;14.43;;;7.28;;
80584;SDS011;70137;56.482;9.154;2023-11-21T09:25:06;14.50;;;7.38;;
80584;SDS011;70137;56.482;9.154;2023-11-21T09:27:33;14.93;;;7.18;;
80584;SDS011;70137;56.482;9.154;2023-11-21T09:30:00;14.27;;;6.85;;
80584;SDS011;70137;56.482;9.154;2023-11-21T09:32:26;12.50;;;6.72;;
80584;SDS011;70137;56.482;9.154;2023-11-21T09:34:51;15.20;;;7.57;;
80584;SDS011;70137;56.482;9.154;2023-11-21T09:37:18;14.50;;;7.65;;
80584;SDS011;70137;56.482;9.154;2023-11-21T09:39:44;12.80;;;7.38;;
80584;SDS011;70137;56.482;9.154;2023-11-21T09:42:10;12.60;;;7.60;;
80584;SDS011;70137;56.482;9.154;2023-11-21T09:47:26;18.20;;;6.78;;
80584;SDS011;70137;56.482;9.154;2023-11-21T09:49:52;12.32;;;6.78;;
80584;SDS011;70137;56.482;9.154;2023-11-21T09:52:24;11.18;;;6.07;;
80584;SDS011;70137;56.482;9.154;2023-11-21T09:54:52;13.77;;;7.25;;
80584;SDS011;70137;56.482;9.154;2023-11-21T09:57:24;11.68;;;7.38;;
80584;SDS011;70137;56.482;9.154;2023-11-21T09:59:53;12.45;;;7.13;;
80584;SDS011;70137;56.482;9.154;2023-11-21T10:02:24;16.23;;;8.50;;
80584;SDS011;70137;56.482;9.154;2023-11-21T10:04:51;15.05;;;8.10;;
80584;SDS011;70137;56.482;9.154;2023-11-21T10:07:17;15.90;;;8.38;;
80584;SDS011;70137;56.482;9.154;2023-11-21T10:09:45;17.27;;;9.02;;
80584;SDS011;70137;56.482;9.154;2023-11-21T10:12:12;15.43;;;9.20;;
80584;SDS011;70137;56.482;9.154;2023-11-21T10:14:41;18.52;;;9.27;;
80584;SDS011;70137;56.482;9.154;2023-11-21T10:17:07;18.73;;;8.88;;
80584;SDS011;70137;56.482;9.154;2023-11-21T10:19:37;19.35;;;9.18;;
80584;SDS011;70137;56.482;9.154;2023-11-21T10:22:03;14.38;;;7.82;;
80584;SDS011;70137;56.482;9.154;2023-11-21T10:24:29;11.30;;;6.80;;
80584;SDS011;70137;56.482;9.154;2023-11-21T10:26:54;13.15;;;7.00;;
80584;SDS011;70137;56.482;9.154;2023-11-21T10:29:20;9.00;;;6.35;;
80584;SDS011;70137;56.482;9.154;2023-11-21T10:31:48;12.30;;;6.55;;
80584;SDS011;70137;56.482;9.154;2023-11-21T10:34:16;10.68;;;5.78;;
80584;SDS011;70137;56.482;9.154;2023-11-21T10:36:43;13.35;;;6.60;;
80584;SDS011;70137;56.482;9.154;2023-11-21T10:39:09;11.93;;;6.63;;
80584;SDS011;70137;56.482;9.154;2023-11-21T10:41:43;11.43;;;6.75;;
80584;SDS011;70137;56.482;9.154;2023-11-21T10:44:10;11.25;;;6.25;;
80584;SDS011;70137;56.482;9.154;2023-11-21T10:46:36;11.38;;;5.85;;
80584;SDS011;70137;56.482;9.154;2023-11-21T10:49:01;12.63;;;6.22;;
80584;SDS011;70137;56.482;9.154;2023-11-21T10:51:27;11.60;;;6.20;;
80584;SDS011;70137;56.482;9.154;2023-11-21T10:53:53;12.63;;;7.20;;
80584;SDS011;70137;56.482;9.154;2023-11-21T10:56:19;12.10;;;7.13;;
80584;SDS011;70137;56.482;9.154;2023-11-21T10:58:48;14.07;;;7.60;;
80584;SDS011;70137;56.482;9.154;2023-11-21T11:01:17;11.02;;;7.38;;
80584;SDS011;70137;56.482;9.154;2023-11-21T11:03:44;13.60;;;7.80;;
80584;SDS011;70137;56.482;9.154;2023-11-21T11:06:09;13.55;;;7.55;;
80584;SDS011;70137;56.482;9.154;2023-11-21T11:08:38;14.63;;;7.50;;
80584;SDS011;70137;56.482;9.154;2023-11-21T11:11:04;11.55;;;7.32;;
80584;SDS011;70137;56.482;9.154;2023-11-21T11:13:30;12.93;;;8.02;;
80584;SDS011;70137;56.482;9.154;2023-11-21T11:16:00;13.88;;;8.27;;
80584;SDS011;70137;56.482;9.154;2023-11-21T11:18:32;13.90;;;7.25;;
80584;SDS011;70137;56.482;9.154;2023-11-21T11:21:11;13.52;;;7.95;;
80584;SDS011;70137;56.482;9.154;2023-11-21T11:24:20;14.82;;;7.47;;
80584;SDS011;70137;56.482;9.154;2023-11-21T11:35:42;14.20;;;7.47;;
80584;SDS011;70137;56.482;9.154;2023-11-21T11:38:15;13.48;;;7.28;;
80584;SDS011;70137;56.482;9.154;2023-11-21T11:40:41;14.02;;;8.10;;
80584;SDS011;70137;56.482;9.154;2023-11-21T11:43:10;11.25;;;6.80;;
80584;SDS011;70137;56.482;9.154;2023-11-21T11:45:36;13.02;;;7.47;;
80584;SDS011;70137;56.482;9.154;2023-11-21T11:48:06;12.25;;;7.32;;
80584;SDS011;70137;56.482;9.154;2023-11-21T11:50:33;11.70;;;7.22;;
80584;SDS011;70137;56.482;9.154;2023-11-21T11:53:17;13.25;;;7.63;;
80584;SDS011;70137;56.482;9.154;2023-11-21T11:55:44;15.45;;;8.25;;
80584;SDS011;70137;56.482;9.154;2023-11-21T11:58:10;14.05;;;7.65;;
80584;SDS011;70137;56.482;9.154;2023-11-21T12:00:36;11.90;;;7.57;;
80584;SDS011;70137;56.482;9.154;2023-11-21T12:03:06;11.65;;;7.63;;
80584;SDS011;70137;56.482;9.154;2023-11-21T12:05:34;14.55;;;8.35;;
80584;SDS011;70137;56.482;9.154;2023-11-21T12:08:10;12.98;;;8.05;;
80584;SDS011;70137;56.482;9.154;2023-11-21T12:10:37;14.70;;;8.65;;
80584;SDS011;70137;56.482;9.154;2023-11-21T12:13:07;15.40;;;8.65;;
80584;SDS011;70137;56.482;9.154;2023-11-21T12:15:37;14.82;;;8.52;;
80584;SDS011;70137;56.482;9.154;2023-11-21T12:18:03;15.02;;;8.50;;
80584;SDS011;70137;56.482;9.154;2023-11-21T12:20:30;15.07;;;8.45;;
80584;SDS011;70137;56.482;9.154;2023-11-21T12:23:03;15.95;;;8.88;;
80584;SDS011;70137;56.482;9.154;2023-11-21T12:25:29;12.73;;;7.97;;
80584;SDS011;70137;56.482;9.154;2023-11-21T12:27:59;12.38;;;8.00;;
80584;SDS011;70137;56.482;9.154;2023-11-21T12:30:26;13.98;;;8.93;;
80584;SDS011;70137;56.482;9.154;2023-11-21T12:32:56;14.63;;;8.82;;
80584;SDS011;70137;56.482;9.154;2023-11-21T12:35:26;15.13;;;9.13;;
80584;SDS011;70137;56.482;9.154;2023-11-21T12:37:58;18.02;;;9.32;;
80584;SDS011;70137;56.482;9.154;2023-11-21T12:40:24;15.05;;;8.38;;
80584;SDS011;70137;56.482;9.154;2023-11-21T12:42:54;15.45;;;9.18;;
80584;SDS011;70137;56.482;9.154;2023-11-21T12:45:21;14.48;;;9.32;;
80584;SDS011;70137;56.482;9.154;2023-11-21T12:47:48;14.93;;;8.77;;
80584;SDS011;70137;56.482;9.154;2023-11-21T12:50:21;15.98;;;8.40;;
80584;SDS011;70137;56.482;9.154;2023-11-21T12:52:49;14.88;;;8.70;;
80584;SDS011;70137;56.482;9.154;2023-11-21T12:55:20;14.00;;;8.05;;
80584;SDS011;70137;56.482;9.154;2023-11-21T12:57:50;15.85;;;9.07;;
80584;SDS011;70137;56.482;9.154;2023-11-21T13:00:32;13.97;;;8.53;;
80584;SDS011;70137;56.482;9.154;2023-11-21T13:03:02;14.38;;;8.55;;
80584;SDS011;70137;56.482;9.154;2023-11-21T13:07:55;16.48;;;9.40;;
80584;SDS011;70137;56.482;9.154;2023-11-21T13:10:25;14.82;;;7.80;;
80584;SDS011;70137;56.482;9.154;2023-11-21T13:12:59;15.00;;;8.35;;
80584;SDS011;70137;56.482;9.154;2023-11-21T13:15:28;13.82;;;8.07;;
80584;SDS011;70137;56.482;9.154;2023-11-21T13:17:56;13.95;;;7.68;;
80584;SDS011;70137;56.482;9.154;2023-11-21T13:20:22;12.73;;;7.47;;
80584;SDS011;70137;56.482;9.154;2023-11-21T13:22:50;12.45;;;7.47;;
80584;SDS011;70137;56.482;9.154;2023-11-21T13:25:20;12.68;;;7.50;;
80584;SDS011;70137;56.482;9.154;2023-11-21T13:27:46;13.23;;;7.50;;
80584;SDS011;70137;56.482;9.154;2023-11-21T13:30:13;14.82;;;7.95;;
80584;SDS011;70137;56.482;9.154;2023-11-21T13:32:44;17.38;;;8.25;;
80584;SDS011;70137;56.482;9.154;2023-11-21T13:35:11;12.45;;;7.75;;
80584;SDS011;70137;56.482;9.154;2023-11-21T13:37:48;12.23;;;7.30;;
80584;SDS011;70137;56.482;9.154;2023-11-21T13:40:19;12.73;;;7.43;;
80584;SDS011;70137;56.482;9.154;2023-11-21T13:42:47;18.58;;;8.07;;
80584;SDS011;70137;56.482;9.154;2023-11-21T13:45:13;13.27;;;7.57;;
80584;SDS011;70137;56.482;9.154;2023-11-21T13:47:39;13.27;;;7.38;;
80584;SDS011;70137;56.482;9.154;2023-11-21T13:50:05;13.45;;;7.18;;
80584;SDS011;70137;56.482;9.154;2023-11-21T13:52:39;13.00;;;7.13;;
80584;SDS011;70137;56.482;9.154;2023-11-21T13:55:04;11.13;;;7.00;;
80584;SDS011;70137;56.482;9.154;2023-11-21T13:57:32;14.68;;;7.80;;
80584;SDS011;70137;56.482;9.154;2023-11-21T13:59:58;14.07;;;7.60;;
80584;SDS011;70137;56.482;9.154;2023-11-21T14:02:24;11.07;;;7.20;;
80584;SDS011;70137;56.482;9.154;2023-11-21T14:04:59;12.13;;;7.13;;
80584;SDS011;70137;56.482;9.154;2023-11-21T14:07:26;11.60;;;6.95;;
80584;SDS011;70137;56.482;9.154;2023-11-21T14:10:00;12.85;;;7.45;;
80584;SDS011;70137;56.482;9.154;2023-11-21T14:12:26;12.70;;;7.20;;
80584;SDS011;70137;56.482;9.154;2023-11-21T14:14:53;11.30;;;7.40;;
80584;SDS011;70137;56.482;9.154;2023-11-21T14:17:20;10.63;;;6.95;;
80584;SDS011;70137;56.482;9.154;2023-11-21T14:19:47;13.00;;;6.97;;
80584;SDS011;70137;56.482;9.154;2023-11-21T14:22:14;12.10;;;6.97;;
80584;SDS011;70137;56.482;9.154;2023-11-21T14:24:39;15.55;;;8.15;;
80584;SDS011;70137;56.482;9.154;2023-11-21T14:27:11;19.08;;;8.43;;
80584;SDS011;70137;56.482;9.154;2023-11-21T14:29:37;12.52;;;7.00;;
80584;SDS011;70137;56.482;9.154;2023-11-21T14:32:04;9.45;;;6.55;;
80584;SDS011;70137;56.482;9.154;2023-11-21T14:34:30;11.45;;;6.55;;
80584;SDS011;70137;56.482;9.154;2023-11-21T14:36:56;9.63;;;6.10;;
80584;SDS011;70137;56.482;9.154;2023-11-21T14:39:21;13.73;;;6.25;;
80584;SDS011;70137;56.482;9.154;2023-11-21T14:41:53;11.07;;;6.50;;
80584;SDS011;70137;56.482;9.154;2023-11-21T14:44:20;11.20;;;6.35;;
80584;SDS011;70137;56.482;9.154;2023-11-21T14:46:49;11.02;;;7.05;;
80584;SDS011;70137;56.482;9.154;2023-11-21T14:49:15;9.18;;;5.97;;